createdAt,value
2023-02-23T00:02:27.112Z,99125.22
2023-02-23T00:04:56.240Z,99121.81
2023-02-23T00:07:28.247Z,99127.81
2023-02-23T00:09:57.286Z,99124.41
2023-02-23T00:12:26.998Z,99120.81
2023-02-23T00:14:59.422Z,99121.81
2023-02-23T00:17:31.514Z,99119.22
2023-02-23T00:20:01.567Z,99113.22
2023-02-23T00:22:30.661Z,99116.06
2023-02-23T00:24:59.710Z,99104.06
2023-02-23T00:27:31.443Z,99105.09
2023-02-23T00:30:01.891Z,99107.72
2023-02-23T00:32:31.083Z,99111.09
2023-02-23T00:35:00.382Z,99112.91
2023-02-23T00:37:29.453Z,99106.94
2023-02-23T00:39:58.478Z,99108.75
2023-02-23T00:42:30.248Z,99112.16
2023-02-23T00:45:08.793Z,99113.16
2023-02-23T00:47:37.945Z,99120.97
2023-02-23T00:50:12.872Z,99108.97
2023-02-23T00:52:43.570Z,99111.59
2023-02-23T00:55:15.129Z,99109.78
2023-02-23T00:57:44.146Z,99111.34
2023-02-23T01:00:20.380Z,99110.53
2023-02-23T01:02:50.639Z,99116.56
2023-02-23T01:05:20.474Z,99109.78
2023-02-23T01:07:49.521Z,99116.56
2023-02-23T01:10:21.725Z,99106.94
2023-02-23T01:12:52.435Z,99105.34
2023-02-23T01:15:23.075Z,99103.53
2023-02-23T01:17:52.188Z,99111.34
2023-02-23T01:20:21.428Z,99110.31
2023-02-23T01:22:52.468Z,99116.56
2023-02-23T01:25:21.780Z,99107.72
2023-02-23T01:27:50.787Z,99105.09
2023-02-23T01:30:19.882Z,99108.50
2023-02-23T01:32:50.954Z,99107.72
2023-02-23T01:35:23.507Z,99106.94
2023-02-23T01:37:52.517Z,99108.50
2023-02-23T01:40:39.263Z,99103.53
2023-02-23T01:43:15.998Z,99103.53
2023-02-23T01:45:46.852Z,99106.38
2023-02-23T01:48:22.441Z,99104.56
2023-02-23T01:50:56.581Z,99101.97
2023-02-23T01:53:28.164Z,99105.34
2023-02-23T01:56:02.556Z,99098.31
2023-02-23T01:58:32.341Z,99099.34
2023-02-23T02:01:03.373Z,99094.91
2023-02-23T02:03:38.158Z,99099.34
2023-02-23T02:06:10.364Z,99090.50
2023-02-23T02:08:45.030Z,99090.50
2023-02-23T02:11:26.185Z,99099.13
2023-02-23T02:13:59.104Z,99093.13
2023-02-23T02:17:02.229Z,99087.34
2023-02-23T02:20:26.571Z,99089.66
2023-02-23T02:23:55.466Z,99084.44
2023-02-23T02:26:42.070Z,99084.44
2023-02-23T02:30:00.271Z,99084.13
2023-02-23T02:33:19.206Z,99079.97
2023-02-23T02:36:18.317Z,99082.56
2023-02-23T02:38:58.874Z,99074.75
2023-02-23T02:41:41.649Z,99073.72
2023-02-23T02:44:19.174Z,99069.31
2023-02-23T02:46:57.464Z,99068.25
2023-02-23T02:49:32.408Z,99069.06
2023-02-23T02:52:08.080Z,99072.19
2023-02-23T02:54:42.525Z,99069.59
2023-02-23T02:57:15.011Z,99065.19
2023-02-23T03:00:03.086Z,99072.75
2023-02-23T03:02:51.606Z,99071.19
2023-02-23T03:05:41.219Z,99066.97
2023-02-23T03:08:36.228Z,99066.22
2023-02-23T03:11:26.671Z,99064.63
2023-02-23T03:14:30.617Z,99066.47
2023-02-23T03:17:29.113Z,99065.66
2023-02-23T03:20:22.305Z,99061.50
2023-02-23T03:23:17.354Z,99062.81
2023-02-23T03:26:12.301Z,99063.06
2023-02-23T03:29:13.766Z,99066.47
2023-02-23T03:32:07.531Z,99063.84
2023-02-23T03:35:00.358Z,99053.44
2023-02-23T03:37:55.705Z,99068.81
2023-02-23T03:40:46.653Z,99064.88
2023-02-23T03:43:37.816Z,99065.13
2023-02-23T03:46:29.308Z,99065.91
2023-02-23T03:49:19.443Z,99073.47
2023-02-23T03:52:14.509Z,99070.88
2023-02-23T03:55:07.260Z,99058.66
2023-02-23T03:57:56.756Z,99063.84
2023-02-23T04:00:48.655Z,99063.84
2023-02-23T04:03:38.634Z,99064.63
2023-02-23T04:06:31.037Z,99064.63
2023-02-23T04:09:22.113Z,99069.84
2023-02-23T04:12:15.027Z,99064.63
2023-02-23T04:14:49.965Z,99060.22
2023-02-23T04:17:25.091Z,99061.78
2023-02-23T04:19:57.199Z,99072.75
2023-02-23T04:22:29.433Z,99068.59
2023-02-23T04:25:01.411Z,99062.34
2023-02-23T04:27:30.422Z,99058.69
2023-02-23T04:29:59.711Z,99058.69
2023-02-23T04:32:28.825Z,99062.09
2023-02-23T04:35:01.492Z,99067.31
2023-02-23T04:37:30.855Z,99060.28
2023-02-23T04:40:00.101Z,99068.88
2023-02-23T04:42:30.039Z,99070.72
2023-02-23T04:45:00.654Z,99066.50
2023-02-23T04:47:31.796Z,99069.09
2023-02-23T04:50:02.323Z,99072.50
2023-02-23T04:52:32.470Z,99071.72
2023-02-23T04:55:01.580Z,99070.72
2023-02-23T04:57:30.773Z,99074.06
2023-02-23T04:59:59.947Z,99069.91
2023-02-23T05:02:29.115Z,99076.69
2023-02-23T05:04:58.271Z,99077.72
2023-02-23T05:07:31.545Z,99075.13
2023-02-23T05:10:00.521Z,99080.09
2023-02-23T05:12:29.564Z,99080.09
2023-02-23T05:14:58.536Z,99075.69
2023-02-23T05:17:27.640Z,99073.31
2023-02-23T05:19:58.970Z,99079.03
2023-02-23T05:22:28.016Z,99074.06
2023-02-23T05:24:58.391Z,99079.28
2023-02-23T05:27:27.649Z,99072.28
2023-02-23T05:29:59.804Z,99076.69
2023-02-23T05:32:29.760Z,99074.06
2023-02-23T05:35:02.531Z,99068.88
2023-02-23T05:37:32.297Z,99075.69
2023-02-23T05:40:02.712Z,99078.28
2023-02-23T05:42:32.062Z,99081.66
2023-02-23T05:45:01.163Z,99083.50
2023-02-23T05:47:30.258Z,99082.44
2023-02-23T05:49:59.237Z,99092.06
2023-02-23T05:52:29.671Z,99084.25
2023-02-23T05:54:58.649Z,99086.88
2023-02-23T05:57:32.676Z,99091.03
2023-02-23T06:00:01.664Z,99085.81
2023-02-23T06:02:33.648Z,99083.22
2023-02-23T06:05:02.809Z,99090.25
2023-02-23T06:07:32.142Z,99081.41
2023-02-23T06:10:01.225Z,99090.03
2023-02-23T06:12:32.109Z,99090.03
2023-02-23T06:15:03.410Z,99090.78
2023-02-23T06:17:32.624Z,99082.72
2023-02-23T06:20:03.520Z,99083.53
2023-02-23T06:22:32.973Z,99089.53
2023-02-23T06:25:04.687Z,99085.09
2023-02-23T06:27:35.950Z,99091.13
2023-02-23T06:30:05.872Z,99096.31
2023-02-23T06:32:35.209Z,99104.13
2023-02-23T06:35:08.228Z,99105.19
2023-02-23T06:37:38.805Z,99097.34
2023-02-23T06:40:10.211Z,99105.94
2023-02-23T06:42:40.613Z,99108.78
2023-02-23T06:45:11.316Z,99108.78
2023-02-23T06:47:40.638Z,99111.16
2023-02-23T06:50:11.885Z,99112.75
2023-02-23T06:52:41.213Z,99111.72
2023-02-23T06:55:11.274Z,99115.88
2023-02-23T06:57:45.767Z,99120.09
2023-02-23T07:00:17.780Z,99120.84
2023-02-23T07:02:47.473Z,99120.84
2023-02-23T07:05:16.589Z,99125.03
2023-02-23T07:07:45.732Z,99128.44
2023-02-23T07:10:14.751Z,99125.34
2023-02-23T07:12:45.178Z,99127.94
2023-02-23T07:20:52.919Z,99137.34
2023-02-23T07:23:22.287Z,99146.75
2023-02-23T07:25:51.914Z,99146.50
2023-02-23T07:28:25.874Z,99140.25
2023-02-23T07:30:57.938Z,99142.88
2023-02-23T07:33:45.627Z,99144.44
2023-02-23T07:36:33.287Z,99141.59
2023-02-23T07:39:20.630Z,99145.75
2023-02-23T07:42:07.756Z,99147.34
2023-02-23T07:44:57.360Z,99145.53
2023-02-23T07:47:31.073Z,99150.50
2023-02-23T07:50:00.683Z,99144.28
2023-02-23T07:52:30.100Z,99146.59
2023-02-23T07:54:59.083Z,99143.00
2023-02-23T07:57:28.111Z,99148.97
2023-02-23T07:59:58.450Z,99144.56
2023-02-23T08:02:29.016Z,99150.56
2023-02-23T08:04:57.978Z,99152.38
2023-02-23T08:07:27.230Z,99159.16
2023-02-23T08:09:59.191Z,99154.50
2023-02-23T08:12:28.290Z,99156.31
2023-02-23T08:14:58.758Z,99158.69
2023-02-23T08:17:27.770Z,99155.84
2023-02-23T08:19:56.749Z,99155.63
2023-02-23T08:22:25.696Z,99165.81
2023-02-23T08:24:54.734Z,99164.00
2023-02-23T08:27:23.842Z,99156.69
2023-02-23T08:29:54.234Z,99161.91
2023-02-23T08:32:24.661Z,99166.88
2023-02-23T08:34:54.217Z,99163.00
2023-02-23T08:37:23.218Z,99177.63
2023-02-23T08:39:55.365Z,99175.03
2023-02-23T08:42:24.559Z,99167.19
2023-02-23T08:44:53.878Z,99179.44
2023-02-23T08:47:24.738Z,99180.25
2023-02-23T08:49:56.793Z,99175.78
2023-02-23T08:52:25.858Z,99174.78
2023-02-23T08:54:55.541Z,99181.56
2023-02-23T08:57:24.998Z,99174.53
2023-02-23T08:59:53.944Z,99182.13
2023-02-23T09:02:27.554Z,99174.31
2023-02-23T09:04:57.464Z,99189.69
2023-02-23T09:07:26.877Z,99180.03
2023-02-23T09:09:56.822Z,99181.88
2023-02-23T09:12:26.056Z,99184.50
2023-02-23T09:14:55.068Z,99181.88
2023-02-23T09:17:26.412Z,99185.25
2023-02-23T09:19:55.459Z,99180.03
2023-02-23T09:22:24.439Z,99185.00
2023-02-23T09:24:53.436Z,99188.94
2023-02-23T09:27:22.687Z,99180.34
2023-02-23T09:29:51.703Z,99187.69
2023-02-23T09:32:20.803Z,99193.69
2023-02-23T09:34:52.504Z,99190.06
2023-02-23T09:37:21.496Z,99188.22
2023-02-23T09:39:50.644Z,99194.75
2023-02-23T09:42:38.520Z,99197.94
2023-02-23T09:45:27.821Z,99198.97
2023-02-23T09:48:10.498Z,99202.34
2023-02-23T09:50:44.608Z,99204.94
2023-02-23T09:53:33.873Z,99196.88
2023-02-23T09:56:10.649Z,99199.25
2023-02-23T09:58:40.776Z,99200.06
2023-02-23T10:01:47.625Z,99200.84
2023-02-23T10:04:22.544Z,99204.00
2023-02-23T10:07:00.092Z,99206.59
2023-02-23T10:09:48.972Z,99210.78
2023-02-23T10:12:32.406Z,99207.16
2023-02-23T10:15:20.374Z,99211.09
2023-02-23T10:18:25.709Z,99201.44
2023-02-23T10:21:06.667Z,99203.56
2023-02-23T10:23:44.135Z,99205.66
2023-02-23T10:26:19.992Z,99205.19
2023-02-23T10:28:49.592Z,99208.59
2023-02-23T10:31:31.674Z,99203.66
2023-02-23T10:34:06.190Z,99204.19
2023-02-23T10:36:40.187Z,99215.72
2023-02-23T10:39:13.750Z,99213.19
2023-02-23T10:41:44.965Z,99215.81
2023-02-23T10:44:22.829Z,99210.19
2023-02-23T10:46:56.654Z,99216.00
2023-02-23T10:49:40.674Z,99213.97
2023-02-23T10:52:13.666Z,99213.47
2023-02-23T10:54:47.566Z,99208.88
2023-02-23T10:57:29.072Z,99211.50
2023-02-23T11:00:27.929Z,99207.38
2023-02-23T11:02:59.320Z,99210.53
2023-02-23T11:05:46.490Z,99209.22
2023-02-23T11:08:26.336Z,99210.56
2023-02-23T11:11:19.550Z,99212.69
2023-02-23T11:13:50.876Z,99212.19
2023-02-23T11:16:22.840Z,99204.41
2023-02-23T11:18:55.901Z,99200.25
2023-02-23T11:21:29.471Z,99204.97
2023-02-23T11:24:03.363Z,99206.03
2023-02-23T11:26:40.033Z,99198.47
2023-02-23T11:29:17.934Z,99197.97
2023-02-23T11:31:53.883Z,99197.78
2023-02-23T11:34:32.131Z,99199.91
2023-02-23T11:37:05.937Z,99192.56
2023-02-23T11:39:38.636Z,99184.47
2023-02-23T11:42:19.987Z,99189.47
2023-02-23T11:44:53.889Z,99184.78
2023-02-23T11:47:26.093Z,99178.25
2023-02-23T11:49:58.567Z,99182.97
2023-02-23T11:52:28.722Z,99179.63
2023-02-23T11:55:00.705Z,99184.31
2023-02-23T11:57:34.680Z,99178.56
2023-02-23T12:00:15.099Z,99186.97
2023-02-23T12:02:55.362Z,99179.63
2023-02-23T12:05:26.997Z,99174.16
2023-02-23T12:08:06.301Z,99168.19
2023-02-23T12:10:43.981Z,99168.75
2023-02-23T12:13:26.831Z,99166.44
2023-02-23T12:16:00.845Z,99169.09
2023-02-23T12:18:47.029Z,99171.50
2023-02-23T12:21:31.158Z,99164.72
2023-02-23T12:24:14.878Z,99162.66
2023-02-23T12:26:52.185Z,99162.44
2023-02-23T12:29:32.218Z,99155.16
2023-02-23T12:32:05.682Z,99146.28
2023-02-23T12:34:43.104Z,99149.19
2023-02-23T12:37:30.259Z,99143.41
2023-02-23T12:40:16.441Z,99133.16
2023-02-23T12:42:55.400Z,99133.44
2023-02-23T12:45:35.399Z,99137.88
2023-02-23T12:48:21.117Z,99131.81
2023-02-23T12:50:54.334Z,99130.25
2023-02-23T12:53:29.928Z,99132.59
2023-02-23T12:56:27.404Z,99127.34
2023-02-23T12:59:25.438Z,99126.28
2023-02-23T13:01:59.579Z,99124.47
2023-02-23T13:04:58.862Z,99120.78
2023-02-23T13:07:39.218Z,99119.22
2023-02-23T13:10:23.909Z,99119.47
2023-02-23T13:13:05.478Z,99128.66
2023-02-23T13:15:51.497Z,99125.00
2023-02-23T13:18:29.188Z,99130.00
2023-02-23T13:21:09.515Z,99127.09
2023-02-23T13:23:48.113Z,99126.06
2023-02-23T13:26:30.293Z,99122.94
2023-02-23T13:29:05.523Z,99124.25
2023-02-23T13:31:38.090Z,99126.34
2023-02-23T13:34:20.957Z,99121.09
2023-02-23T13:36:51.697Z,99120.81
2023-02-23T13:39:55.404Z,99122.16
2023-02-23T13:42:46.734Z,99117.69
2023-02-23T13:45:37.747Z,99120.59
2023-02-23T13:48:25.706Z,99121.38
2023-02-23T13:51:05.044Z,99120.59
2023-02-23T13:53:41.753Z,99119.81
2023-02-23T13:56:12.825Z,99124.00
2023-02-23T13:58:49.252Z,99123.22
2023-02-23T14:01:24.326Z,99126.38
2023-02-23T14:03:57.329Z,99123.22
2023-02-23T14:06:34.607Z,99132.94
2023-02-23T14:09:19.081Z,99129.78
2023-02-23T14:11:52.214Z,99126.66
2023-02-23T14:14:45.145Z,99129.81
2023-02-23T14:17:57.647Z,99132.94
2023-02-23T14:20:51.136Z,99126.13
2023-02-23T14:23:40.030Z,99125.59
2023-02-23T14:26:48.645Z,99126.13
2023-02-23T14:29:32.033Z,99122.97
2023-02-23T14:32:06.101Z,99121.94
2023-02-23T14:34:57.376Z,99116.72
2023-02-23T14:37:32.452Z,99130.84
2023-02-23T14:40:19.846Z,99127.72
2023-02-23T14:42:53.855Z,99126.91
2023-02-23T14:45:28.881Z,99131.34
2023-02-23T14:48:04.093Z,99124.56
2023-02-23T14:50:37.804Z,99128.22
2023-02-23T14:53:20.656Z,99120.63
2023-02-23T14:55:52.410Z,99117.75
2023-02-23T14:58:25.535Z,99120.34
2023-02-23T15:00:58.197Z,99120.34
2023-02-23T15:03:28.493Z,99118.81
2023-02-23T15:06:02.312Z,99112.00
2023-02-23T15:08:44.332Z,99118.28
2023-02-23T15:11:19.377Z,99115.13
2023-02-23T15:13:53.104Z,99119.84
2023-02-23T15:16:30.129Z,99120.13
2023-02-23T15:19:36.051Z,99127.69
2023-02-23T15:22:07.578Z,99119.84
2023-02-23T15:24:45.780Z,99129.28
2023-02-23T15:27:27.133Z,99128.75
2023-02-23T15:29:57.465Z,99126.13
2023-02-23T15:32:28.540Z,99128.75
2023-02-23T15:35:03.756Z,99127.19
2023-02-23T15:37:39.685Z,99126.41
2023-02-23T15:40:18.926Z,99129.81
2023-02-23T15:42:54.514Z,99131.13
2023-02-23T15:45:35.663Z,99128.50
2023-02-23T15:48:09.743Z,99128.78
2023-02-23T15:50:45.056Z,99125.09
2023-02-23T15:53:29.378Z,99125.34
2023-02-23T15:56:04.970Z,99126.16
2023-02-23T15:58:56.079Z,99134.78
2023-02-23T16:01:29.424Z,99136.34
2023-02-23T16:04:03.652Z,99125.38
2023-02-23T16:06:35.951Z,99134.25
2023-02-23T16:09:22.175Z,99130.88
2023-02-23T16:11:55.354Z,99130.31
2023-02-23T16:14:28.501Z,99130.31
2023-02-23T16:17:11.182Z,99127.13
2023-02-23T16:19:42.255Z,99125.56
2023-02-23T16:22:25.075Z,99129.25
2023-02-23T16:25:05.454Z,99129.50
2023-02-23T16:27:35.898Z,99131.31
2023-02-23T16:30:32.365Z,99126.59
2023-02-23T16:33:11.441Z,99145.44
2023-02-23T16:35:46.787Z,99142.81
2023-02-23T16:38:25.692Z,99145.75
2023-02-23T16:40:56.732Z,99143.38
2023-02-23T16:43:29.132Z,99149.63
2023-02-23T16:46:03.637Z,99150.16
2023-02-23T16:48:34.103Z,99144.16
2023-02-23T16:51:16.098Z,99142.81
2023-02-23T16:53:47.091Z,99148.34
2023-02-23T16:56:22.679Z,99151.97
2023-02-23T16:59:01.885Z,99154.84
2023-02-23T17:01:33.628Z,99143.88
2023-02-23T17:04:03.813Z,99141.75
2023-02-23T17:06:33.953Z,99150.38
2023-02-23T17:09:04.232Z,99151.69
2023-02-23T17:11:34.210Z,99152.75
2023-02-23T17:14:04.311Z,99156.41
2023-02-23T17:16:36.221Z,99160.31
2023-02-23T17:19:07.416Z,99165.81
2023-02-23T17:21:40.404Z,99153.78
2023-02-23T17:24:10.196Z,99162.94
2023-02-23T17:26:42.414Z,99155.34
2023-02-23T17:29:12.581Z,99159.25
2023-02-23T17:31:44.525Z,99162.91
2023-02-23T17:34:36.108Z,99161.84
2023-02-23T17:37:07.988Z,99166.31
2023-02-23T17:39:41.068Z,99162.09
2023-02-23T17:42:11.179Z,99157.38
2023-02-23T17:44:41.275Z,99169.69
2023-02-23T17:47:12.837Z,99162.91
2023-02-23T17:49:42.919Z,99172.03
2023-02-23T17:52:12.917Z,99173.88
2023-02-23T17:54:54.053Z,99172.53
2023-02-23T17:57:25.053Z,99173.31
2023-02-23T17:59:55.189Z,99166.78
2023-02-23T18:02:27.029Z,99162.06
2023-02-23T18:04:57.185Z,99158.91
2023-02-23T18:07:27.524Z,99163.09
2023-02-23T18:09:57.919Z,99164.13
2023-02-23T18:12:28.383Z,99160.47
2023-02-23T18:15:01.385Z,99169.34
2023-02-23T18:17:33.947Z,99159.94
2023-02-23T18:20:06.097Z,99160.44
2023-02-23T18:22:36.563Z,99159.66
2023-02-23T18:25:08.029Z,99162.53
2023-02-23T18:27:40.777Z,99160.97
2023-02-23T18:30:15.729Z,99158.59
2023-02-23T18:32:47.502Z,99157.53
2023-02-23T18:35:18.233Z,99153.06
2023-02-23T18:37:48.382Z,99161.97
2023-02-23T18:40:24.114Z,99158.03
2023-02-23T18:42:54.288Z,99155.66
2023-02-23T18:45:24.606Z,99159.31
2023-02-23T18:47:56.389Z,99162.94
2023-02-23T18:50:27.698Z,99157.19
2023-02-23T18:53:03.471Z,99154.28
2023-02-23T18:55:33.780Z,99159.78
2023-02-23T18:58:05.289Z,99160.56
2023-02-23T19:00:40.360Z,99151.41
2023-02-23T19:03:13.080Z,99147.72
2023-02-23T19:05:53.200Z,99156.09
2023-02-23T19:08:23.713Z,99146.16
2023-02-23T19:10:54.264Z,99150.06
2023-02-23T19:13:24.419Z,99140.41
2023-02-23T19:16:01.495Z,99139.31
2023-02-23T19:18:39.396Z,99142.72
2023-02-23T19:21:09.562Z,99139.56
2023-02-23T19:23:45.330Z,99145.84
2023-02-23T19:26:16.426Z,99144.53
2023-02-23T19:28:50.167Z,99139.00
2023-02-23T19:31:26.266Z,99144.22
2023-02-23T19:34:09.009Z,99139.00
2023-02-23T19:36:45.444Z,99129.84
2023-02-23T19:39:29.383Z,99138.50
2023-02-23T19:42:02.615Z,99142.41
2023-02-23T19:44:36.382Z,99132.44
2023-02-23T19:47:10.278Z,99130.88
2023-02-23T19:49:45.722Z,99137.88
2023-02-23T19:52:19.574Z,99148.09
2023-02-23T19:54:52.332Z,99143.91
2023-02-23T19:57:24.078Z,99145.72
2023-02-23T20:00:09.854Z,99142.34
2023-02-23T20:02:57.458Z,99145.47
2023-02-23T20:05:36.658Z,99153.28
2023-02-23T20:08:10.872Z,99156.41
2023-02-23T20:10:45.557Z,99162.16
2023-02-23T20:13:19.573Z,99158.22
2023-02-23T20:15:53.969Z,99157.44
2023-02-23T20:18:25.304Z,99157.94
2023-02-23T20:20:59.588Z,99165.25
2023-02-23T20:23:32.642Z,99166.03
2023-02-23T20:26:07.792Z,99169.91
2023-02-23T20:28:42.529Z,99170.97
2023-02-23T20:31:15.264Z,99176.97
2023-02-23T20:33:54.941Z,99173.06
2023-02-23T20:36:41.449Z,99171.47
2023-02-23T20:39:38.624Z,99170.94
2023-02-23T20:42:14.453Z,99186.06
2023-02-23T20:45:05.175Z,99175.63
2023-02-23T20:47:38.452Z,99172.47
2023-02-23T20:50:11.344Z,99175.84
2023-02-23T20:52:44.617Z,99162.03
2023-02-23T20:55:19.912Z,99172.44
2023-02-23T20:57:52.676Z,99162.53
2023-02-23T21:00:32.492Z,99171.63
2023-02-23T21:03:05.028Z,99173.47
2023-02-23T21:05:44.232Z,99177.63
2023-02-23T21:08:53.154Z,99177.34
2023-02-23T21:11:17.254Z,99168.44
2023-02-23T21:13:48.063Z,99179.19
2023-02-23T21:16:26.374Z,99170.03
2023-02-23T21:19:05.503Z,99172.91
2023-02-23T21:21:41.260Z,99175.25
2023-02-23T21:24:23.423Z,99178.13
2023-02-23T21:26:56.267Z,99175.50
2023-02-23T21:29:32.144Z,99165.81
2023-02-23T21:32:20.193Z,99172.59
2023-02-23T21:34:51.752Z,99170.22
2023-02-23T21:37:22.916Z,99171.78
2023-02-23T21:39:57.817Z,99180.66
2023-02-23T21:42:30.137Z,99179.09
2023-02-23T21:45:03.120Z,99174.94
2023-02-23T21:47:37.332Z,99176.41
2023-02-23T21:50:16.897Z,99175.19
2023-02-23T21:52:54.298Z,99168.56
2023-02-23T21:55:28.315Z,99172.81
2023-02-23T21:58:00.486Z,99172.47
2023-02-23T22:00:31.276Z,99170.41
2023-02-23T22:03:01.858Z,99164.41
2023-02-23T22:05:32.102Z,99174.03
2023-02-23T22:08:02.496Z,99164.13
2023-02-23T22:10:34.603Z,99170.91
2023-02-23T22:13:14.042Z,99167.75
2023-02-23T22:15:44.328Z,99163.81
2023-02-23T22:18:14.749Z,99163.25
2023-02-23T22:20:51.394Z,99160.13
2023-02-23T22:23:21.732Z,99163.81
2023-02-23T22:25:55.778Z,99163.25
2023-02-23T22:28:26.082Z,99168.50
2023-02-23T22:30:56.590Z,99165.88
2023-02-23T22:33:27.065Z,99162.50
2023-02-23T22:35:58.682Z,99157.53
2023-02-23T22:38:29.107Z,99150.75
2023-02-23T22:41:00.968Z,99155.97
2023-02-23T22:43:34.486Z,99150.19
2023-02-23T22:46:06.456Z,99156.44
2023-02-23T22:48:37.686Z,99147.03
2023-02-23T22:51:10.118Z,99153.53
2023-02-23T22:53:40.704Z,99155.91
2023-02-23T22:56:12.383Z,99148.56
2023-02-23T22:58:43.321Z,99146.75
2023-02-23T23:01:14.095Z,99153.78
2023-02-23T23:03:47.129Z,99157.69
2023-02-23T23:06:23.019Z,99149.06
2023-02-23T23:08:57.154Z,99158.47
2023-02-23T23:11:30.107Z,99156.88
2023-02-23T23:14:02.647Z,99153.75
2023-02-23T23:16:35.604Z,99141.72
2023-02-23T23:19:12.300Z,99136.78
2023-02-23T23:21:44.991Z,99144.84
2023-02-23T23:24:16.095Z,99139.63
2023-02-23T23:26:47.442Z,99133.59
2023-02-23T23:29:18.264Z,99128.63
2023-02-23T23:31:48.850Z,99133.06
2023-02-23T23:34:21.961Z,99128.88
2023-02-23T23:36:53.498Z,99136.97
2023-02-23T23:39:26.287Z,99142.19
2023-02-23T23:41:57.443Z,99137.19
2023-02-23T23:44:29.493Z,99137.44
2023-02-23T23:46:59.750Z,99139.53
2023-02-23T23:49:28.773Z,99133.53
2023-02-23T23:51:58.230Z,99133.75
2023-02-23T23:54:30.928Z,99122.78
2023-02-23T23:57:02.461Z,99126.66
2023-02-23T23:59:32.919Z,99130.06
